sensor_id;sensor_type;location;lat;lon;timestamp;pressure;altitude;pressure_sealevel;temperature;humidity
62544;BME280;48597;49.030;1.822;2022-07-17T00:00:19;101767.06;;;25.16;36.44
62544;BME280;48597;49.030;1.822;2022-07-17T00:02:45;101769.06;;;25.14;36.54
62544;BME280;48597;49.030;1.822;2022-07-17T00:05:13;101768.38;;;25.12;36.41
62544;BME280;48597;49.030;1.822;2022-07-17T00:07:38;101765.00;;;25.10;36.60
62544;BME280;48597;49.030;1.822;2022-07-17T00:10:04;101756.38;;;25.07;36.40
62544;BME280;48597;49.030;1.822;2022-07-17T00:12:29;101767.13;;;25.07;36.62
62544;BME280;48597;49.030;1.822;2022-07-17T00:14:55;101769.00;;;25.06;36.65
62544;BME280;48597;49.030;1.822;2022-07-17T00:17:20;101765.78;;;25.03;36.60
62544;BME280;48597;49.030;1.822;2022-07-17T00:19:46;101763.44;;;25.00;36.65
62544;BME280;48597;49.030;1.822;2022-07-17T00:22:12;101765.25;;;24.99;36.73
62544;BME280;48597;49.030;1.822;2022-07-17T00:24:37;101762.72;;;24.97;36.61
62544;BME280;48597;49.030;1.822;2022-07-17T00:27:03;101755.66;;;24.96;36.58
62544;BME280;48597;49.030;1.822;2022-07-17T00:29:28;101756.81;;;24.94;36.74
62544;BME280;48597;49.030;1.822;2022-07-17T00:31:53;101758.84;;;24.92;36.55
62544;BME280;48597;49.030;1.822;2022-07-17T00:34:19;101755.28;;;24.91;36.77
62544;BME280;48597;49.030;1.822;2022-07-17T00:36:44;101753.78;;;24.89;36.53
62544;BME280;48597;49.030;1.822;2022-07-17T00:39:10;101743.31;;;24.86;36.64
62544;BME280;48597;49.030;1.822;2022-07-17T00:41:35;101743.31;;;24.86;36.91
62544;BME280;48597;49.030;1.822;2022-07-17T00:44:09;101747.03;;;24.85;36.59
62544;BME280;48597;49.030;1.822;2022-07-17T00:46:35;101744.81;;;24.80;36.73
62544;BME280;48597;49.030;1.822;2022-07-17T00:49:01;101750.22;;;24.80;36.73
62544;BME280;48597;49.030;1.822;2022-07-17T00:51:27;101751.03;;;24.81;36.79
62544;BME280;48597;49.030;1.822;2022-07-17T00:53:52;101759.25;;;24.79;36.75
62544;BME280;48597;49.030;1.822;2022-07-17T00:56:21;101755.06;;;24.77;36.50
62544;BME280;48597;49.030;1.822;2022-07-17T00:58:49;101757.91;;;24.75;36.84
62544;BME280;48597;49.030;1.822;2022-07-17T01:01:15;101764.28;;;24.74;36.71
62544;BME280;48597;49.030;1.822;2022-07-17T01:03:41;101762.75;;;24.71;36.99
62544;BME280;48597;49.030;1.822;2022-07-17T01:06:07;101764.47;;;24.72;36.72
62544;BME280;48597;49.030;1.822;2022-07-17T01:08:33;101761.91;;;24.71;36.61
62544;BME280;48597;49.030;1.822;2022-07-17T01:10:58;101757.72;;;24.68;36.83
62544;BME280;48597;49.030;1.822;2022-07-17T01:13:24;101761.38;;;24.67;36.63
62544;BME280;48597;49.030;1.822;2022-07-17T01:15:50;101756.34;;;24.64;36.73
62544;BME280;48597;49.030;1.822;2022-07-17T01:18:15;101758.16;;;24.64;36.91
62544;BME280;48597;49.030;1.822;2022-07-17T01:20:43;101757.31;;;24.63;36.87
62544;BME280;48597;49.030;1.822;2022-07-17T01:23:09;101762.03;;;24.61;36.96
62544;BME280;48597;49.030;1.822;2022-07-17T01:25:35;101759.47;;;24.60;36.85
62544;BME280;48597;49.030;1.822;2022-07-17T01:28:01;101754.28;;;24.58;36.92
62544;BME280;48597;49.030;1.822;2022-07-17T01:30:28;101751.91;;;24.55;36.96
62544;BME280;48597;49.030;1.822;2022-07-17T01:32:53;101749.22;;;24.55;37.02
62544;BME280;48597;49.030;1.822;2022-07-17T01:35:19;101744.84;;;24.54;36.92
62544;BME280;48597;49.030;1.822;2022-07-17T01:37:45;101731.69;;;24.51;36.98
62544;BME280;48597;49.030;1.822;2022-07-17T01:40:12;101731.88;;;24.49;37.25
62544;BME280;48597;49.030;1.822;2022-07-17T01:42:39;101724.81;;;24.48;36.98
62544;BME280;48597;49.030;1.822;2022-07-17T01:45:05;101722.25;;;24.47;36.93
62544;BME280;48597;49.030;1.822;2022-07-17T01:47:31;101718.72;;;24.46;36.89
62544;BME280;48597;49.030;1.822;2022-07-17T01:49:58;101719.88;;;24.44;37.09
62544;BME280;48597;49.030;1.822;2022-07-17T01:52:25;101725.41;;;24.42;37.22
62544;BME280;48597;49.030;1.822;2022-07-17T01:54:52;101720.88;;;24.43;37.19
62544;BME280;48597;49.030;1.822;2022-07-17T01:57:18;101725.41;;;24.42;37.24
62544;BME280;48597;49.030;1.822;2022-07-17T01:59:43;101729.25;;;24.40;37.20
62544;BME280;48597;49.030;1.822;2022-07-17T02:02:09;101732.78;;;24.40;37.37
62544;BME280;48597;49.030;1.822;2022-07-17T02:04:37;101727.72;;;24.37;37.20
62544;BME280;48597;49.030;1.822;2022-07-17T02:07:03;101727.72;;;24.37;37.56
62544;BME280;48597;49.030;1.822;2022-07-17T02:09:29;101730.53;;;24.36;37.42
62544;BME280;48597;49.030;1.822;2022-07-17T02:11:54;101722.66;;;24.34;37.42
62544;BME280;48597;49.030;1.822;2022-07-17T02:14:20;101720.13;;;24.33;37.52
62544;BME280;48597;49.030;1.822;2022-07-17T02:16:46;101716.72;;;24.31;37.49
62544;BME280;48597;49.030;1.822;2022-07-17T02:19:11;101717.75;;;24.30;37.61
62544;BME280;48597;49.030;1.822;2022-07-17T02:21:37;101714.34;;;24.28;37.46
62544;BME280;48597;49.030;1.822;2022-07-17T02:24:02;101719.91;;;24.26;37.55
62544;BME280;48597;49.030;1.822;2022-07-17T02:26:28;101728.81;;;24.27;37.13
62544;BME280;48597;49.030;1.822;2022-07-17T02:28:53;101721.75;;;24.25;37.40
62544;BME280;48597;49.030;1.822;2022-07-17T02:31:19;101712.97;;;24.23;37.36
62544;BME280;48597;49.030;1.822;2022-07-17T02:33:46;101721.22;;;24.22;37.22
62544;BME280;48597;49.030;1.822;2022-07-17T02:36:11;101717.00;;;24.19;37.61
62544;BME280;48597;49.030;1.822;2022-07-17T02:38:37;101719.00;;;24.17;37.58
62544;BME280;48597;49.030;1.822;2022-07-17T02:41:02;101714.59;;;24.16;37.59
62544;BME280;48597;49.030;1.822;2022-07-17T02:43:27;101715.44;;;24.17;37.53
62544;BME280;48597;49.030;1.822;2022-07-17T02:45:53;101714.94;;;24.13;37.96
62544;BME280;48597;49.030;1.822;2022-07-17T02:48:18;101707.72;;;24.14;37.63
62544;BME280;48597;49.030;1.822;2022-07-17T02:50:43;101713.09;;;24.14;37.63
62544;BME280;48597;49.030;1.822;2022-07-17T02:53:09;101716.94;;;24.11;37.64
62544;BME280;48597;49.030;1.822;2022-07-17T02:55:34;101720.47;;;24.12;37.70
62544;BME280;48597;49.030;1.822;2022-07-17T02:57:59;101717.78;;;24.12;37.77
62544;BME280;48597;49.030;1.822;2022-07-17T03:00:25;101719.78;;;24.10;37.88
62544;BME280;48597;49.030;1.822;2022-07-17T03:02:52;101722.63;;;24.08;37.77
62544;BME280;48597;49.030;1.822;2022-07-17T03:05:18;101720.09;;;24.07;37.73
62544;BME280;48597;49.030;1.822;2022-07-17T03:07:44;101723.94;;;24.04;37.81
62544;BME280;48597;49.030;1.822;2022-07-17T03:10:10;101725.09;;;24.02;37.73
62544;BME280;48597;49.030;1.822;2022-07-17T03:12:35;101719.88;;;24.00;37.84
62544;BME280;48597;49.030;1.822;2022-07-17T03:15:02;101734.16;;;24.00;37.83
62544;BME280;48597;49.030;1.822;2022-07-17T03:17:27;101729.78;;;23.99;37.71
62544;BME280;48597;49.030;1.822;2022-07-17T03:19:53;101741.53;;;23.98;37.96
62544;BME280;48597;49.030;1.822;2022-07-17T03:22:18;101739.69;;;23.99;38.12
62544;BME280;48597;49.030;1.822;2022-07-17T03:24:43;101743.41;;;23.98;38.03
62544;BME280;48597;49.030;1.822;2022-07-17T03:27:09;101746.09;;;23.98;38.13
62544;BME280;48597;49.030;1.822;2022-07-17T03:29:34;101747.06;;;23.97;38.02
62544;BME280;48597;49.030;1.822;2022-07-17T03:31:59;101745.38;;;23.96;38.11
62544;BME280;48597;49.030;1.822;2022-07-17T03:34:25;101740.84;;;23.96;38.16
62544;BME280;48597;49.030;1.822;2022-07-17T03:36:50;101736.63;;;23.94;38.05
62544;BME280;48597;49.030;1.822;2022-07-17T03:39:16;101735.94;;;23.92;38.00
62544;BME280;48597;49.030;1.822;2022-07-17T03:41:41;101727.88;;;23.92;38.02
62544;BME280;48597;49.030;1.822;2022-07-17T03:44:07;101729.72;;;23.91;37.95
62544;BME280;48597;49.030;1.822;2022-07-17T03:46:32;101731.56;;;23.91;38.28
62544;BME280;48597;49.030;1.822;2022-07-17T03:48:57;101737.25;;;23.88;38.03
62544;BME280;48597;49.030;1.822;2022-07-17T03:51:23;101739.94;;;23.88;38.44
62544;BME280;48597;49.030;1.822;2022-07-17T03:53:49;101735.56;;;23.87;38.18
62544;BME280;48597;49.030;1.822;2022-07-17T03:56:14;101744.63;;;23.86;38.37
62544;BME280;48597;49.030;1.822;2022-07-17T03:58:40;101744.63;;;23.86;38.32
62544;BME280;48597;49.030;1.822;2022-07-17T04:01:05;101747.47;;;23.84;38.29
62544;BME280;48597;49.030;1.822;2022-07-17T04:03:30;101757.38;;;23.84;38.48
62544;BME280;48597;49.030;1.822;2022-07-17T04:05:56;101773.50;;;23.84;38.48
62544;BME280;48597;49.030;1.822;2022-07-17T04:08:21;101764.44;;;23.85;38.44
62544;BME280;48597;49.030;1.822;2022-07-17T04:10:47;101768.13;;;23.84;38.65
62544;BME280;48597;49.030;1.822;2022-07-17T04:13:12;101766.44;;;23.83;38.40
62544;BME280;48597;49.030;1.822;2022-07-17T04:15:38;101775.50;;;23.82;38.59
62544;BME280;48597;49.030;1.822;2022-07-17T04:18:19;101777.31;;;23.81;38.58
62544;BME280;48597;49.030;1.822;2022-07-17T04:20:46;101785.38;;;23.81;38.68
62544;BME280;48597;49.030;1.822;2022-07-17T04:23:11;101779.16;;;23.81;38.51
62544;BME280;48597;49.030;1.822;2022-07-17T04:25:38;101776.47;;;23.81;38.55
62544;BME280;48597;49.030;1.822;2022-07-17T04:28:03;101775.66;;;23.80;38.68
62544;BME280;48597;49.030;1.822;2022-07-17T04:30:28;101782.16;;;23.77;38.53
62544;BME280;48597;49.030;1.822;2022-07-17T04:32:54;101787.41;;;23.79;38.61
62544;BME280;48597;49.030;1.822;2022-07-17T04:35:19;101779.34;;;23.79;38.79
62544;BME280;48597;49.030;1.822;2022-07-17T04:37:44;101784.16;;;23.75;38.86
62544;BME280;48597;49.030;1.822;2022-07-17T04:40:10;101779.81;;;23.74;38.51
62544;BME280;48597;49.030;1.822;2022-07-17T04:42:36;101783.47;;;23.73;38.56
62544;BME280;48597;49.030;1.822;2022-07-17T04:45:02;101789.16;;;23.70;38.33
62544;BME280;48597;49.030;1.822;2022-07-17T04:47:27;101792.69;;;23.71;38.37
62544;BME280;48597;49.030;1.822;2022-07-17T04:49:53;101793.69;;;23.70;38.52
62544;BME280;48597;49.030;1.822;2022-07-17T04:52:18;101800.22;;;23.67;38.54
62544;BME280;48597;49.030;1.822;2022-07-17T04:54:44;101790.47;;;23.66;39.04
62544;BME280;48597;49.030;1.822;2022-07-17T04:57:09;101787.88;;;23.65;38.63
62544;BME280;48597;49.030;1.822;2022-07-17T04:59:34;101786.03;;;23.65;38.61
62544;BME280;48597;49.030;1.822;2022-07-17T05:02:02;101795.00;;;23.66;38.66
62544;BME280;48597;49.030;1.822;2022-07-17T05:04:28;101791.41;;;23.65;38.97
62544;BME280;48597;49.030;1.822;2022-07-17T05:06:53;101784.34;;;23.64;38.68
62544;BME280;48597;49.030;1.822;2022-07-17T05:09:18;101792.41;;;23.64;38.64
62544;BME280;48597;49.030;1.822;2022-07-17T05:11:43;101790.72;;;23.63;38.63
62544;BME280;48597;49.030;1.822;2022-07-17T05:14:09;101789.19;;;23.61;38.65
62544;BME280;48597;49.030;1.822;2022-07-17T05:16:34;101785.50;;;23.62;38.51
62544;BME280;48597;49.030;1.822;2022-07-17T05:19:00;101792.72;;;23.61;38.66
62544;BME280;48597;49.030;1.822;2022-07-17T05:21:26;101791.88;;;23.61;38.75
62544;BME280;48597;49.030;1.822;2022-07-17T05:23:51;101789.34;;;23.59;38.73
62544;BME280;48597;49.030;1.822;2022-07-17T05:26:17;101800.22;;;23.58;38.99
62544;BME280;48597;49.030;1.822;2022-07-17T05:28:42;101796.69;;;23.57;38.95
62544;BME280;48597;49.030;1.822;2022-07-17T05:31:07;101787.81;;;23.57;39.10
62544;BME280;48597;49.030;1.822;2022-07-17T05:33:33;101799.38;;;23.57;39.19
62544;BME280;48597;49.030;1.822;2022-07-17T05:35:59;101801.22;;;23.57;39.12
62544;BME280;48597;49.030;1.822;2022-07-17T05:38:24;101803.06;;;23.56;39.30
62544;BME280;48597;49.030;1.822;2022-07-17T05:40:49;101798.53;;;23.57;39.08
62544;BME280;48597;49.030;1.822;2022-07-17T05:43:15;101800.38;;;23.56;39.49
62544;BME280;48597;49.030;1.822;2022-07-17T05:45:40;101802.91;;;23.58;40.05
62544;BME280;48597;49.030;1.822;2022-07-17T05:48:06;101803.63;;;23.60;39.89
62544;BME280;48597;49.030;1.822;2022-07-17T05:50:32;101801.09;;;23.58;40.25
62544;BME280;48597;49.030;1.822;2022-07-17T05:52:57;101802.06;;;23.57;40.52
62544;BME280;48597;49.030;1.822;2022-07-17T05:55:23;101802.06;;;23.57;40.47
62544;BME280;48597;49.030;1.822;2022-07-17T05:57:48;101802.22;;;23.56;40.51
62544;BME280;48597;49.030;1.822;2022-07-17T06:00:14;101808.44;;;23.56;40.67
62544;BME280;48597;49.030;1.822;2022-07-17T06:02:40;101806.59;;;23.57;40.46
62544;BME280;48597;49.030;1.822;2022-07-17T06:05:05;101803.06;;;23.56;40.87
62544;BME280;48597;49.030;1.822;2022-07-17T06:07:31;101802.06;;;23.57;40.59
62544;BME280;48597;49.030;1.822;2022-07-17T06:09:56;101787.81;;;23.57;40.53
62544;BME280;48597;49.030;1.822;2022-07-17T06:12:21;101793.72;;;23.60;40.56
62544;BME280;48597;49.030;1.822;2022-07-17T06:14:47;101784.97;;;23.58;40.79
62544;BME280;48597;49.030;1.822;2022-07-17T06:17:12;101793.72;;;23.60;40.63
62544;BME280;48597;49.030;1.822;2022-07-17T06:19:37;101785.66;;;23.60;40.94
62544;BME280;48597;49.030;1.822;2022-07-17T06:22:03;101787.34;;;23.61;40.80
62544;BME280;48597;49.030;1.822;2022-07-17T06:24:28;101781.84;;;23.63;40.55
62544;BME280;48597;49.030;1.822;2022-07-17T06:26:53;101775.44;;;23.64;40.44
62544;BME280;48597;49.030;1.822;2022-07-17T06:29:19;101779.81;;;23.65;40.63
62544;BME280;48597;49.030;1.822;2022-07-17T06:31:44;101776.19;;;23.66;40.40
62544;BME280;48597;49.030;1.822;2022-07-17T06:34:09;101784.09;;;23.67;40.49
62544;BME280;48597;49.030;1.822;2022-07-17T06:36:35;101784.09;;;23.67;40.54
62544;BME280;48597;49.030;1.822;2022-07-17T06:39:00;101777.72;;;23.68;40.49
62544;BME280;48597;49.030;1.822;2022-07-17T06:41:26;101787.44;;;23.69;40.33
62544;BME280;48597;49.030;1.822;2022-07-17T06:43:51;101789.16;;;23.70;40.44
62544;BME280;48597;49.030;1.822;2022-07-17T06:46:16;101786.16;;;23.73;40.63
62544;BME280;48597;49.030;1.822;2022-07-17T06:48:41;101787.88;;;23.74;40.64
62544;BME280;48597;49.030;1.822;2022-07-17T06:51:07;101787.69;;;23.76;41.24
62544;BME280;48597;49.030;1.822;2022-07-17T06:53:32;101800.13;;;23.77;41.18
62544;BME280;48597;49.030;1.822;2022-07-17T06:55:57;101797.16;;;23.80;41.45
62544;BME280;48597;49.030;1.822;2022-07-17T06:58:23;101794.31;;;23.82;41.56
62544;BME280;48597;49.030;1.822;2022-07-17T07:00:48;101792.31;;;23.84;41.37
62544;BME280;48597;49.030;1.822;2022-07-17T07:03:13;101789.47;;;23.85;41.36
62544;BME280;48597;49.030;1.822;2022-07-17T07:05:39;101791.16;;;23.86;41.41
62544;BME280;48597;49.030;1.822;2022-07-17T07:08:04;101785.63;;;23.88;41.56
62544;BME280;48597;49.030;1.822;2022-07-17T07:10:30;101787.19;;;23.90;41.58
62544;BME280;48597;49.030;1.822;2022-07-17T07:12:55;101788.69;;;23.93;41.42
62544;BME280;48597;49.030;1.822;2022-07-17T07:15:21;101798.31;;;23.95;41.31
62544;BME280;48597;49.030;1.822;2022-07-17T07:17:46;101802.69;;;23.96;41.22
62544;BME280;48597;49.030;1.822;2022-07-17T07:20:13;101798.00;;;23.98;41.40
62544;BME280;48597;49.030;1.822;2022-07-17T07:22:38;101793.63;;;23.97;41.21
62544;BME280;48597;49.030;1.822;2022-07-17T07:25:04;101795.84;;;24.02;41.30
62544;BME280;48597;49.030;1.822;2022-07-17T07:27:29;101787.78;;;24.02;41.39
62544;BME280;48597;49.030;1.822;2022-07-17T07:29:55;101792.00;;;24.05;41.28
62544;BME280;48597;49.030;1.822;2022-07-17T07:32:20;101792.88;;;24.05;41.19
62544;BME280;48597;49.030;1.822;2022-07-17T07:34:46;101788.34;;;24.06;40.96
62544;BME280;48597;49.030;1.822;2022-07-17T07:37:11;101790.69;;;24.09;40.96
62544;BME280;48597;49.030;1.822;2022-07-17T07:39:37;101779.78;;;24.10;41.08
62544;BME280;48597;49.030;1.822;2022-07-17T07:42:02;101782.47;;;24.10;41.26
62544;BME280;48597;49.030;1.822;2022-07-17T07:44:28;101784.16;;;24.11;41.06
62544;BME280;48597;49.030;1.822;2022-07-17T07:46:53;101778.63;;;24.13;40.93
62544;BME280;48597;49.030;1.822;2022-07-17T07:49:18;101775.94;;;24.13;40.94
62544;BME280;48597;49.030;1.822;2022-07-17T07:51:44;101781.84;;;24.16;41.24
62544;BME280;48597;49.030;1.822;2022-07-17T07:54:09;101783.56;;;24.17;40.98
62544;BME280;48597;49.030;1.822;2022-07-17T07:56:35;101777.00;;;24.20;40.92
62544;BME280;48597;49.030;1.822;2022-07-17T07:59:02;101786.63;;;24.22;40.72
62544;BME280;48597;49.030;1.822;2022-07-17T08:01:27;101783.94;;;24.22;40.71
62544;BME280;48597;49.030;1.822;2022-07-17T08:03:52;101780.22;;;24.23;40.83
62544;BME280;48597;49.030;1.822;2022-07-17T08:06:18;101786.31;;;24.25;40.71
62544;BME280;48597;49.030;1.822;2022-07-17T08:08:43;101786.97;;;24.28;40.92
62544;BME280;48597;49.030;1.822;2022-07-17T08:11:09;101792.22;;;24.29;41.13
62544;BME280;48597;49.030;1.822;2022-07-17T08:13:34;101790.38;;;24.30;41.04
62544;BME280;48597;49.030;1.822;2022-07-17T08:15:59;101788.66;;;24.29;41.42
62544;BME280;48597;49.030;1.822;2022-07-17T08:18:26;101791.88;;;24.32;41.37
62544;BME280;48597;49.030;1.822;2022-07-17T08:20:52;101790.06;;;24.33;41.51
62544;BME280;48597;49.030;1.822;2022-07-17T08:23:18;101794.44;;;24.34;41.75
62544;BME280;48597;49.030;1.822;2022-07-17T08:25:43;101790.56;;;24.36;41.45
62544;BME280;48597;49.030;1.822;2022-07-17T08:28:09;101787.75;;;24.38;41.26
62544;BME280;48597;49.030;1.822;2022-07-17T08:30:35;101793.13;;;24.38;41.82
62544;BME280;48597;49.030;1.822;2022-07-17T08:33:06;101787.75;;;24.38;41.62
62544;BME280;48597;49.030;1.822;2022-07-17T08:35:33;101797.53;;;24.39;41.67
62544;BME280;48597;49.030;1.822;2022-07-17T08:37:58;101791.84;;;24.42;41.84
62544;BME280;48597;49.030;1.822;2022-07-17T08:40:31;101790.00;;;24.42;41.69
62544;BME280;48597;49.030;1.822;2022-07-17T08:42:58;101785.31;;;24.44;41.86
62544;BME280;48597;49.030;1.822;2022-07-17T08:45:24;101785.44;;;24.43;41.91
62544;BME280;48597;49.030;1.822;2022-07-17T08:47:51;101781.63;;;24.45;41.70
62544;BME280;48597;49.030;1.822;2022-07-17T08:50:28;101793.03;;;24.47;41.87
62544;BME280;48597;49.030;1.822;2022-07-17T08:52:54;101793.03;;;24.47;42.08
62544;BME280;48597;49.030;1.822;2022-07-17T08:55:20;101789.22;;;24.50;42.00
62544;BME280;48597;49.030;1.822;2022-07-17T08:57:46;101798.81;;;24.53;41.89
62544;BME280;48597;49.030;1.822;2022-07-17T09:00:13;101797.81;;;24.54;41.84
62544;BME280;48597;49.030;1.822;2022-07-17T09:03:04;101788.91;;;24.53;41.74
62544;BME280;48597;49.030;1.822;2022-07-17T09:05:32;101790.28;;;24.57;41.78
62544;BME280;48597;49.030;1.822;2022-07-17T09:07:59;101790.94;;;24.59;41.92
62544;BME280;48597;49.030;1.822;2022-07-17T09:10:39;101793.50;;;24.61;41.75
62544;BME280;48597;49.030;1.822;2022-07-17T09:13:27;101788.94;;;24.61;41.87
62544;BME280;48597;49.030;1.822;2022-07-17T09:16:07;101786.94;;;24.63;42.09
62544;BME280;48597;49.030;1.822;2022-07-17T09:18:48;101788.63;;;24.64;41.87
62544;BME280;48597;49.030;1.822;2022-07-17T09:21:23;101792.00;;;24.66;41.45
62544;BME280;48597;49.030;1.822;2022-07-17T09:24:06;101792.00;;;24.66;41.53
62544;BME280;48597;49.030;1.822;2022-07-17T09:26:35;101789.13;;;24.68;41.81
62544;BME280;48597;49.030;1.822;2022-07-17T09:29:08;101791.69;;;24.69;41.64
62544;BME280;48597;49.030;1.822;2022-07-17T09:31:36;101788.84;;;24.71;41.69
62544;BME280;48597;49.030;1.822;2022-07-17T09:34:02;101785.16;;;24.72;41.37
62544;BME280;48597;49.030;1.822;2022-07-17T09:36:28;101792.06;;;24.74;41.66
62544;BME280;48597;49.030;1.822;2022-07-17T09:38:55;101788.34;;;24.76;41.67
62544;BME280;48597;49.030;1.822;2022-07-17T09:41:23;101796.13;;;24.79;41.65
62544;BME280;48597;49.030;1.822;2022-07-17T09:46:24;101787.72;;;24.82;41.70
62544;BME280;48597;49.030;1.822;2022-07-17T09:48:55;101784.84;;;24.83;41.62
62544;BME280;48597;49.030;1.822;2022-07-17T09:53:49;101787.09;;;24.88;41.49
62544;BME280;48597;49.030;1.822;2022-07-17T09:56:17;101787.75;;;24.90;41.82
62544;BME280;48597;49.030;1.822;2022-07-17T09:58:49;101786.75;;;24.91;41.74
62544;BME280;48597;49.030;1.822;2022-07-17T10:01:15;101792.00;;;24.92;41.75
62544;BME280;48597;49.030;1.822;2022-07-17T10:03:42;101782.06;;;24.93;41.51
62544;BME280;48597;49.030;1.822;2022-07-17T10:06:11;101795.34;;;24.94;41.51
62544;BME280;48597;49.030;1.822;2022-07-17T10:08:38;101789.13;;;24.94;41.62
62544;BME280;48597;49.030;1.822;2022-07-17T10:11:08;101786.97;;;24.97;41.64
62544;BME280;48597;49.030;1.822;2022-07-17T10:13:39;101785.94;;;24.98;41.32
62544;BME280;48597;49.030;1.822;2022-07-17T10:16:09;101797.56;;;24.99;41.42
62544;BME280;48597;49.030;1.822;2022-07-17T10:18:42;101794.72;;;25.01;41.26
62544;BME280;48597;49.030;1.822;2022-07-17T10:21:13;101792.69;;;25.03;41.39
62544;BME280;48597;49.030;1.822;2022-07-17T10:24:25;101800.63;;;25.04;41.37
62544;BME280;48597;49.030;1.822;2022-07-17T10:26:33;101802.31;;;25.05;41.43
62544;BME280;48597;49.030;1.822;2022-07-17T10:28:59;101799.44;;;25.07;40.99
62544;BME280;48597;49.030;1.822;2022-07-17T10:31:26;101796.63;;;25.08;40.97
62544;BME280;48597;49.030;1.822;2022-07-17T10:34:02;101793.94;;;25.08;41.28
62544;BME280;48597;49.030;1.822;2022-07-17T10:36:36;101791.94;;;25.10;41.08
62544;BME280;48597;49.030;1.822;2022-07-17T10:39:19;101799.03;;;25.11;41.44
62544;BME280;48597;49.030;1.822;2022-07-17T10:42:01;101797.00;;;25.13;41.07
62544;BME280;48597;49.030;1.822;2022-07-17T10:44:28;101801.38;;;25.14;41.07
62544;BME280;48597;49.030;1.822;2022-07-17T10:46:55;101792.31;;;25.15;40.99
62544;BME280;48597;49.030;1.822;2022-07-17T10:49:21;101796.69;;;25.16;41.13
62544;BME280;48597;49.030;1.822;2022-07-17T10:51:47;101779.50;;;25.17;41.00
62544;BME280;48597;49.030;1.822;2022-07-17T10:54:12;101791.13;;;25.18;41.06
62544;BME280;48597;49.030;1.822;2022-07-17T10:56:39;101785.59;;;25.19;41.19
62544;BME280;48597;49.030;1.822;2022-07-17T10:59:09;101794.50;;;25.20;41.07
62544;BME280;48597;49.030;1.822;2022-07-17T11:01:35;101783.56;;;25.21;41.02
62544;BME280;48597;49.030;1.822;2022-07-17T11:04:01;101779.84;;;25.22;40.93
62544;BME280;48597;49.030;1.822;2022-07-17T11:06:32;101777.84;;;25.25;40.96
62544;BME280;48597;49.030;1.822;2022-07-17T11:08:59;101775.00;;;25.26;40.67
62544;BME280;48597;49.030;1.822;2022-07-17T11:11:49;101761.38;;;25.28;40.74
62544;BME280;48597;49.030;1.822;2022-07-17T11:14:23;101773.81;;;25.29;40.92
62544;BME280;48597;49.030;1.822;2022-07-17T11:16:56;101770.97;;;25.30;40.63
62544;BME280;48597;49.030;1.822;2022-07-17T11:19:30;101765.44;;;25.32;40.76
62544;BME280;48597;49.030;1.822;2022-07-17T11:21:58;101760.69;;;25.34;40.43
62544;BME280;48597;49.030;1.822;2022-07-17T11:24:23;101766.78;;;25.36;40.45
62544;BME280;48597;49.030;1.822;2022-07-17T11:26:51;101758.69;;;25.36;40.36
62544;BME280;48597;49.030;1.822;2022-07-17T11:29:17;101757.69;;;25.37;40.20
62544;BME280;48597;49.030;1.822;2022-07-17T11:31:43;101749.44;;;25.38;40.25
62544;BME280;48597;49.030;1.822;2022-07-17T11:34:10;101743.88;;;25.40;40.47
62544;BME280;48597;49.030;1.822;2022-07-17T11:36:38;101739.34;;;25.40;39.98
62544;BME280;48597;49.030;1.822;2022-07-17T11:39:08;101732.09;;;25.41;40.30
62544;BME280;48597;49.030;1.822;2022-07-17T11:41:47;101732.09;;;25.41;40.05
62544;BME280;48597;49.030;1.822;2022-07-17T11:44:18;101723.69;;;25.44;40.14
62544;BME280;48597;49.030;1.822;2022-07-17T11:46:46;101724.53;;;25.44;40.15
62544;BME280;48597;49.030;1.822;2022-07-17T11:49:26;101725.38;;;25.45;40.16
62544;BME280;48597;49.030;1.822;2022-07-17T11:51:59;101717.97;;;25.47;40.10
62544;BME280;48597;49.030;1.822;2022-07-17T11:54:25;101716.97;;;25.48;40.09
62544;BME280;48597;49.030;1.822;2022-07-17T11:56:56;101707.03;;;25.49;39.84
62544;BME280;48597;49.030;1.822;2022-07-17T11:59:31;101711.25;;;25.51;40.00
62544;BME280;48597;49.030;1.822;2022-07-17T12:02:09;101711.25;;;25.51;40.10
62544;BME280;48597;49.030;1.822;2022-07-17T12:04:35;101707.34;;;25.54;39.78
62544;BME280;48597;49.030;1.822;2022-07-17T12:07:02;101707.22;;;25.55;40.03
62544;BME280;48597;49.030;1.822;2022-07-17T12:09:33;101699.97;;;25.56;40.01
62544;BME280;48597;49.030;1.822;2022-07-17T12:11:59;101701.63;;;25.57;39.96
62544;BME280;48597;49.030;1.822;2022-07-17T12:14:24;101705.16;;;25.57;39.70
62544;BME280;48597;49.030;1.822;2022-07-17T12:16:50;101701.47;;;25.58;39.68
62544;BME280;48597;49.030;1.822;2022-07-17T12:19:18;101696.94;;;25.59;39.53
62544;BME280;48597;49.030;1.822;2022-07-17T12:22:00;101693.22;;;25.60;39.73
62544;BME280;48597;49.030;1.822;2022-07-17T12:26:53;101692.06;;;25.62;39.96
62544;BME280;48597;49.030;1.822;2022-07-17T12:29:19;101691.19;;;25.62;39.75
62544;BME280;48597;49.030;1.822;2022-07-17T12:31:44;101694.56;;;25.64;39.56
62544;BME280;48597;49.030;1.822;2022-07-17T12:34:09;101683.78;;;25.64;39.64
62544;BME280;48597;49.030;1.822;2022-07-17T12:36:35;101680.91;;;25.65;39.59
62544;BME280;48597;49.030;1.822;2022-07-17T12:39:00;101682.63;;;25.66;39.55
62544;BME280;48597;49.030;1.822;2022-07-17T12:41:26;101677.22;;;25.66;39.58
62544;BME280;48597;49.030;1.822;2022-07-17T12:43:51;101677.06;;;25.68;39.82
62544;BME280;48597;49.030;1.822;2022-07-17T12:46:17;101675.19;;;25.68;39.07
62544;BME280;48597;49.030;1.822;2022-07-17T12:48:43;101665.25;;;25.69;39.46
62544;BME280;48597;49.030;1.822;2022-07-17T12:51:10;101663.25;;;25.71;39.48
62544;BME280;48597;49.030;1.822;2022-07-17T12:53:38;101661.38;;;25.71;39.70
62544;BME280;48597;49.030;1.822;2022-07-17T12:56:04;101662.03;;;25.74;39.86